NORTHERN QUEENS  -  Heat Advisory Heat Advisory     Air Quality Alert Air Quality Alert        SOUTHERN QUEENS  -  Heat Advisory Heat Advisory     Air Quality Alert Air Quality Alert      

Active alerts

Northern Queens
  Details for Northern Queens Heat Advisory  +1 additional alert
Southern Queens
  Details for Southern Queens Heat Advisory  +1 additional alert


WXM80 ListenWXM80 Stop

You find our weather info also at:

UK Metoffice

WeatherCloud

Weather Underground

Northeastern Weather Network

AWEKAS

Citizen Weather Observer Program (CWOP)

HAMweather, WeatherForYou, PWS Weather


Weather Underground History page Text

Daily Summary for November 11, 2016 Units:  English    Metric   Both
« Previous Day
Next Day »
Daily Weekly Monthly Yearly Custom
  High: Low: Average:
Temperature: 61.9 °F 41.5 °F 51.6 °F
Dew Point: 47.0 °F 25.2 °F 36.3 °F
Humidity: 68 % 44 % 56 %
Wind Speed: 14.5 mph 1.0 mph 5.8 mph
Wind Gust: 23.0 mph - -
Wind:- - WSW
Pressure: 30.12 in 29.58 in -
Precipitation: 0.00 in    
Historical Graphs
 
 
Tabular Data for November 11, 2016
Time Temperature Dew Point Pressure Wind Wind Speed Wind Gust Humidity Rainfall Rate (Hourly)
00:00 49.5 °F 39.4 °F 29.66 in West 4.4 mph 4.6 mph 68 % 0.00 in
00:05 49.5 °F 39.4 °F 29.65 in SW 2.0 mph 8.0 mph 68 % 0.00 in
00:10 49.5 °F 39.4 °F 29.65 in SW 5.0 mph 10.0 mph 68 % 0.00 in
00:15 49.6 °F 39.1 °F 29.65 in SSW 1.9 mph 5.8 mph 67 % 0.00 in
00:20 49.7 °F 39.2 °F 29.64 in SW 3.0 mph 10.0 mph 67 % 0.00 in
00:25 49.8 °F 39.3 °F 29.64 in SW 5.0 mph 9.0 mph 67 % 0.00 in
00:30 49.8 °F 39.3 °F 29.64 in SSW 1.0 mph 8.0 mph 67 % 0.00 in
00:35 49.8 °F 39.3 °F 29.63 in SSW 3.0 mph 5.0 mph 67 % 0.00 in
00:40 49.8 °F 38.9 °F 29.63 in SW 2.0 mph 8.0 mph 66 % 0.00 in
00:45 49.7 °F 38.8 °F 29.62 in SW 1.0 mph 7.0 mph 66 % 0.00 in
00:50 49.7 °F 38.8 °F 29.62 in SW 3.0 mph 7.0 mph 66 % 0.00 in
00:55 49.6 °F 38.7 °F 29.62 in SW 1.0 mph 5.0 mph 66 % 0.00 in
01:00 49.6 °F 38.7 °F 29.62 in SSW 3.4 mph 6.9 mph 66 % 0.00 in
01:05 49.5 °F 38.6 °F 29.62 in WSW 2.0 mph 8.0 mph 66 % 0.00 in
01:10 49.4 °F 38.1 °F 29.61 in SW 2.0 mph 5.0 mph 65 % 0.00 in
01:15 49.4 °F 38.5 °F 29.61 in SW 2.0 mph 7.0 mph 66 % 0.00 in
01:20 49.3 °F 38.0 °F 29.61 in SW 1.0 mph 7.0 mph 65 % 0.00 in
01:25 49.3 °F 38.4 °F 29.61 in SW 1.0 mph 8.0 mph 66 % 0.00 in
01:30 49.2 °F 37.9 °F 29.61 in West 4.7 mph 6.0 mph 65 % 0.00 in
01:35 49.3 °F 38.0 °F 29.61 in SW 2.0 mph 8.0 mph 65 % 0.00 in
01:40 49.3 °F 38.0 °F 29.61 in SW 2.0 mph 6.0 mph 65 % 0.00 in
01:45 49.3 °F 38.0 °F 29.61 in SW 2.0 mph 6.0 mph 65 % 0.00 in
01:50 49.2 °F 37.9 °F 29.61 in SSW 5.0 mph 12.0 mph 65 % 0.00 in
01:55 49.2 °F 37.9 °F 29.61 in SSW 2.0 mph 8.0 mph 65 % 0.00 in
02:00 49.3 °F 38.0 °F 29.61 in WSW 2.1 mph 4.6 mph 65 % 0.00 in
02:05 49.3 °F 37.6 °F 29.61 in SW 6.3 mph 11.5 mph 64 % 0.00 in
02:10 49.5 °F 37.8 °F 29.61 in SSW 5.0 mph 7.0 mph 64 % 0.00 in
02:15 49.5 °F 37.8 °F 29.61 in West 3.9 mph 11.5 mph 64 % 0.00 in
02:21 49.6 °F 37.9 °F 29.61 in WSW 6.4 mph 10.4 mph 64 % 0.00 in
02:26 49.6 °F 37.9 °F 29.61 in SW 3.3 mph 5.8 mph 64 % 0.00 in
02:31 49.6 °F 37.9 °F 29.61 in South 6.6 mph 10.0 mph 64 % 0.00 in
02:36 49.5 °F 37.8 °F 29.61 in SSW 2.7 mph 6.9 mph 64 % 0.00 in
02:41 49.5 °F 37.8 °F 29.60 in SSW 3.7 mph 5.8 mph 64 % 0.00 in
02:46 49.5 °F 37.8 °F 29.60 in SSW 5.1 mph 6.9 mph 64 % 0.00 in
02:51 49.4 °F 37.7 °F 29.60 in SSW 3.4 mph 5.8 mph 64 % 0.00 in
02:56 49.3 °F 37.6 °F 29.60 in West 2.5 mph 8.1 mph 64 % 0.00 in
03:01 49.2 °F 37.5 °F 29.60 in SW 2.1 mph 4.6 mph 64 % 0.00 in
03:06 49.1 °F 37.4 °F 29.60 in SW 5.4 mph 9.2 mph 64 % 0.00 in
03:12 49.1 °F 37.4 °F 29.60 in West 3.9 mph 4.6 mph 64 % 0.00 in
03:17 49.1 °F 37.4 °F 29.60 in WSW 7.2 mph 13.8 mph 64 % 0.00 in
03:22 49.1 °F 37.4 °F 29.60 in SW 5.3 mph 10.4 mph 64 % 0.00 in
03:27 49.1 °F 37.4 °F 29.59 in SW 5.5 mph 11.5 mph 64 % 0.00 in
03:32 49.2 °F 37.1 °F 29.60 in SSW 4.9 mph 8.1 mph 63 % 0.00 in
03:37 49.3 °F 37.2 °F 29.60 in SSW 4.1 mph 6.9 mph 63 % 0.00 in
03:42 49.4 °F 37.3 °F 29.60 in WSW 4.5 mph 9.2 mph 63 % 0.00 in
03:47 49.4 °F 37.3 °F 29.59 in WSW 3.8 mph 6.9 mph 63 % 0.00 in
03:52 49.4 °F 37.3 °F 29.59 in SSW 4.8 mph 11.5 mph 63 % 0.00 in
03:57 49.4 °F 37.3 °F 29.59 in West 5.2 mph 9.2 mph 63 % 0.00 in
04:02 49.3 °F 37.2 °F 29.59 in SSW 7.0 mph 13.0 mph 63 % 0.00 in
04:12 49.3 °F 37.2 °F 29.60 in SSW 3.4 mph 10.4 mph 63 % 0.00 in
04:18 49.3 °F 37.2 °F 29.59 in SSW 6.3 mph 11.5 mph 63 % 0.00 in
04:23 49.2 °F 37.1 °F 29.59 in SW 7.4 mph 11.5 mph 63 % 0.00 in
04:28 49.2 °F 37.1 °F 29.59 in SW 3.7 mph 9.2 mph 63 % 0.00 in
04:33 49.2 °F 37.1 °F 29.59 in WSW 5.4 mph 10.4 mph 63 % 0.00 in
04:38 49.2 °F 37.1 °F 29.60 in SW 2.8 mph 6.9 mph 63 % 0.00 in
04:43 49.1 °F 37.4 °F 29.59 in SW 5.2 mph 8.1 mph 64 % 0.00 in
04:48 49.0 °F 36.9 °F 29.59 in SW 5.3 mph 11.0 mph 63 % 0.00 in
04:53 49.0 °F 36.9 °F 29.59 in SW 6.9 mph 11.5 mph 63 % 0.00 in
04:58 49.0 °F 36.9 °F 29.59 in SW 6.0 mph 9.2 mph 63 % 0.00 in
05:03 49.0 °F 36.9 °F 29.59 in WSW 4.8 mph 6.9 mph 63 % 0.00 in
05:09 49.0 °F 37.3 °F 29.59 in SW 6.0 mph 6.9 mph 64 % 0.00 in
05:14 48.9 °F 37.3 °F 29.59 in SSW 3.9 mph 4.6 mph 64 % 0.00 in
05:19 48.9 °F 37.3 °F 29.58 in SW 2.8 mph 4.6 mph 64 % 0.00 in
05:24 48.8 °F 37.2 °F 29.59 in SW 3.0 mph 5.0 mph 64 % 0.00 in
05:29 48.8 °F 37.2 °F 29.59 in SW 3.8 mph 5.8 mph 64 % 0.00 in
05:34 48.7 °F 37.1 °F 29.59 in SSW 4.3 mph 8.1 mph 64 % 0.00 in
05:39 48.7 °F 37.1 °F 29.59 in SSW 5.5 mph 9.2 mph 64 % 0.00 in
05:44 48.7 °F 37.1 °F 29.59 in WSW 3.6 mph 6.9 mph 64 % 0.00 in
05:49 48.7 °F 37.1 °F 29.59 in SW 1.7 mph 3.5 mph 64 % 0.00 in
05:54 48.6 °F 37.0 °F 29.59 in SW 5.4 mph 6.9 mph 64 % 0.00 in
06:00 48.5 °F 36.9 °F 29.60 in WNW 2.6 mph 4.6 mph 64 % 0.00 in
06:05 48.5 °F 36.9 °F 29.60 in SSW 6.2 mph 8.1 mph 64 % 0.00 in
06:10 48.4 °F 36.8 °F 29.60 in SW 6.5 mph 9.0 mph 64 % 0.00 in
06:15 48.5 °F 36.9 °F 29.60 in SW 4.7 mph 12.0 mph 64 % 0.00 in
06:20 48.6 °F 37.0 °F 29.60 in WSW 5.1 mph 7.0 mph 64 % 0.00 in
06:25 48.7 °F 37.1 °F 29.61 in SW 6.3 mph 7.0 mph 64 % 0.00 in
06:30 48.9 °F 37.2 °F 29.60 in SW 6.0 mph 9.0 mph 64 % 0.00 in
06:35 49.0 °F 37.3 °F 29.61 in SW 7.0 mph 13.0 mph 64 % 0.00 in
06:40 49.2 °F 37.1 °F 29.60 in SW 7.1 mph 10.0 mph 63 % 0.00 in
06:45 49.3 °F 37.2 °F 29.60 in SW 5.0 mph 10.0 mph 63 % 0.00 in
06:50 49.4 °F 37.7 °F 29.61 in WSW 6.0 mph 13.0 mph 64 % 0.00 in
06:55 49.4 °F 37.7 °F 29.61 in SW 3.0 mph 8.0 mph 64 % 0.00 in
07:00 49.4 °F 37.7 °F 29.62 in SW 5.6 mph 11.5 mph 64 % 0.00 in
07:05 49.3 °F 37.6 °F 29.62 in SSW 3.8 mph 6.9 mph 64 % 0.00 in
07:10 49.3 °F 37.6 °F 29.62 in SW 4.7 mph 7.0 mph 64 % 0.00 in
07:15 49.3 °F 37.6 °F 29.61 in SW 2.4 mph 5.0 mph 64 % 0.00 in
07:21 49.4 °F 37.7 °F 29.61 in West 5.0 mph 8.1 mph 64 % 0.00 in
07:26 49.6 °F 38.3 °F 29.61 in SW 4.2 mph 9.0 mph 65 % 0.00 in
07:31 49.9 °F 39.0 °F 29.62 in SW 7.2 mph 11.5 mph 66 % 0.00 in
07:36 50.2 °F 39.3 °F 29.62 in SW 6.1 mph 9.2 mph 66 % 0.00 in
07:41 50.5 °F 39.9 °F 29.62 in SW 2.6 mph 5.8 mph 67 % 0.00 in
07:46 50.8 °F 40.2 °F 29.62 in SSW 4.9 mph 8.1 mph 67 % 0.00 in
07:51 51.0 °F 40.4 °F 29.62 in West 8.2 mph 15.0 mph 67 % 0.00 in
07:56 51.4 °F 40.4 °F 29.62 in SSW 6.5 mph 11.5 mph 66 % 0.00 in
08:01 51.9 °F 40.5 °F 29.62 in WSW 8.2 mph 12.7 mph 65 % 0.00 in
08:06 52.3 °F 40.9 °F 29.62 in WSW 5.0 mph 8.1 mph 65 % 0.00 in
08:12 52.6 °F 40.8 °F 29.62 in WNW 5.3 mph 8.1 mph 64 % 0.00 in
08:17 53.0 °F 41.1 °F 29.62 in SW 6.1 mph 8.1 mph 64 % 0.00 in
08:22 53.3 °F 41.0 °F 29.62 in WNW 5.5 mph 10.4 mph 63 % 0.00 in
08:27 53.6 °F 41.3 °F 29.62 in WSW 3.5 mph 8.1 mph 63 % 0.00 in
08:32 53.9 °F 41.6 °F 29.63 in SSW 5.4 mph 8.1 mph 63 % 0.00 in
08:37 54.2 °F 41.5 °F 29.62 in SW 2.8 mph 11.5 mph 62 % 0.00 in
08:42 54.7 °F 41.9 °F 29.62 in WSW 7.9 mph 21.9 mph 62 % 0.00 in
08:47 55.1 °F 41.9 °F 29.62 in WSW 8.0 mph 12.7 mph 61 % 0.00 in
08:52 55.4 °F 42.2 °F 29.62 in WSW 5.8 mph 6.0 mph 61 % 0.00 in
08:57 55.8 °F 42.5 °F 29.63 in WSW 5.9 mph 11.5 mph 61 % 0.00 in
09:02 56.2 °F 42.5 °F 29.63 in SW 7.2 mph 15.0 mph 60 % 0.00 in
09:07 56.5 °F 42.8 °F 29.63 in West 3.5 mph 11.5 mph 60 % 0.00 in
09:12 56.8 °F 42.6 °F 29.63 in SSW 5.9 mph 11.5 mph 59 % 0.00 in
09:18 57.0 °F 43.2 °F 29.63 in SW 4.9 mph 10.4 mph 60 % 0.00 in
09:23 57.3 °F 43.1 °F 29.63 in West 5.1 mph 13.8 mph 59 % 0.00 in
09:28 57.7 °F 43.5 °F 29.63 in NW 5.8 mph 10.4 mph 59 % 0.00 in
09:33 58.0 °F 43.7 °F 29.63 in SW 6.5 mph 9.2 mph 59 % 0.00 in
09:38 58.3 °F 44.0 °F 29.63 in West 1.9 mph 5.8 mph 59 % 0.00 in
09:43 58.6 °F 44.3 °F 29.63 in WNW 2.4 mph 12.7 mph 59 % 0.00 in
09:48 58.9 °F 44.1 °F 29.63 in WSW 4.9 mph 10.4 mph 58 % 0.00 in
09:53 59.2 °F 44.4 °F 29.63 in NW 7.1 mph 12.7 mph 58 % 0.00 in
09:58 59.4 °F 44.6 °F 29.63 in WSW 4.4 mph 12.7 mph 58 % 0.00 in
10:03 59.7 °F 44.4 °F 29.64 in WNW 4.4 mph 13.8 mph 57 % 0.00 in
10:09 60.0 °F 45.6 °F 29.64 in West 3.0 mph 13.8 mph 59 % 0.00 in
10:14 60.3 °F 45.9 °F 29.64 in WNW 5.5 mph 17.0 mph 59 % 0.00 in
10:19 60.7 °F 45.8 °F 29.64 in WSW 8.0 mph 13.8 mph 58 % 0.00 in
10:24 61.1 °F 46.7 °F 29.64 in WNW 6.7 mph 13.8 mph 59 % 0.00 in
10:29 61.3 °F 45.9 °F 29.64 in NW 8.2 mph 19.6 mph 57 % 0.00 in
10:34 61.5 °F 46.1 °F 29.64 in North 5.2 mph 15.0 mph 57 % 0.00 in
10:39 61.6 °F 46.2 °F 29.64 in NNW 3.7 mph 17.3 mph 57 % 0.00 in
10:44 61.7 °F 46.3 °F 29.64 in North 6.8 mph 18.4 mph 57 % 0.00 in
10:49 61.8 °F 46.4 °F 29.64 in North 7.1 mph 11.5 mph 57 % 0.00 in
10:55 61.8 °F 45.9 °F 29.64 in WNW 7.4 mph 16.1 mph 56 % 0.00 in
11:00 61.8 °F 46.4 °F 29.65 in ENE 3.3 mph 6.9 mph 57 % 0.00 in
11:05 61.9 °F 47.0 °F 29.65 in WNW 4.4 mph 7.0 mph 58 % 0.00 in
11:10 61.9 °F 46.0 °F 29.65 in WNW 3.9 mph 11.5 mph 56 % 0.00 in
11:15 61.7 °F 45.8 °F 29.65 in WNW 8.4 mph 12.7 mph 56 % 0.00 in
11:20 61.5 °F 45.2 °F 29.65 in North 6.4 mph 16.1 mph 55 % 0.00 in
11:25 61.4 °F 46.0 °F 29.65 in WNW 7.9 mph 14.0 mph 57 % 0.00 in
11:30 61.3 °F 45.5 °F 29.65 in NW 8.0 mph 17.0 mph 56 % 0.00 in
11:35 61.2 °F 45.8 °F 29.65 in NW 3.0 mph 12.0 mph 57 % 0.00 in
11:40 61.2 °F 45.4 °F 29.65 in NW 8.0 mph 16.0 mph 56 % 0.00 in
11:45 61.1 °F 43.8 °F 29.65 in WNW 7.0 mph 17.0 mph 53 % 0.00 in
11:50 61.1 °F 42.8 °F 29.66 in WNW 7.0 mph 17.0 mph 51 % 0.00 in
11:55 61.1 °F 43.8 °F 29.66 in West 6.0 mph 17.0 mph 53 % 0.00 in
12:00 61.2 °F 44.4 °F 29.66 in NNW 6.4 mph 11.5 mph 54 % 0.00 in
12:05 61.2 °F 43.9 °F 29.66 in NNE 6.8 mph 18.4 mph 53 % 0.00 in
12:10 61.3 °F 45.5 °F 29.67 in NNW 5.3 mph 10.4 mph 56 % 0.00 in
12:16 61.4 °F 44.6 °F 29.66 in WNW 9.9 mph 15.0 mph 54 % 0.00 in
12:21 61.4 °F 43.6 °F 29.67 in WNW 7.8 mph 13.8 mph 52 % 0.00 in
12:26 61.4 °F 44.6 °F 29.67 in NNW 7.0 mph 19.0 mph 54 % 0.00 in
12:31 61.2 °F 43.9 °F 29.67 in NW 5.7 mph 16.1 mph 53 % 0.00 in
12:36 61.1 °F 42.8 °F 29.67 in WNW 7.6 mph 13.8 mph 51 % 0.00 in
12:41 61.0 °F 41.7 °F 29.68 in North 7.2 mph 11.5 mph 49 % 0.00 in
12:46 60.9 °F 41.6 °F 29.68 in NW 5.6 mph 15.0 mph 49 % 0.00 in
12:51 60.8 °F 42.0 °F 29.68 in WNW 5.3 mph 15.0 mph 50 % 0.00 in
12:56 60.7 °F 39.8 °F 29.68 in West 9.3 mph 17.3 mph 46 % 0.00 in
13:01 60.8 °F 40.4 °F 29.68 in West 4.9 mph 11.5 mph 47 % 0.00 in
13:07 60.9 °F 41.1 °F 29.68 in WNW 6.9 mph 12.7 mph 48 % 0.00 in
13:12 61.0 °F 39.5 °F 29.68 in WNW 6.8 mph 13.8 mph 45 % 0.00 in
13:17 61.1 °F 40.7 °F 29.68 in West 3.6 mph 12.0 mph 47 % 0.00 in
13:22 61.3 °F 40.9 °F 29.68 in SSW 3.9 mph 9.2 mph 47 % 0.00 in
13:27 61.3 °F 40.3 °F 29.69 in WNW 7.6 mph 10.0 mph 46 % 0.00 in
13:32 61.4 °F 41.0 °F 29.69 in WNW 4.7 mph 11.5 mph 47 % 0.00 in
13:37 61.4 °F 41.5 °F 29.69 in NW 3.6 mph 12.7 mph 48 % 0.00 in
13:42 61.4 °F 41.5 °F 29.69 in NNW 6.9 mph 12.7 mph 48 % 0.00 in
13:47 61.1 °F 41.2 °F 29.70 in WNW 4.8 mph 10.4 mph 48 % 0.00 in
13:52 61.0 °F 40.6 °F 29.70 in WNW 6.2 mph 11.5 mph 47 % 0.00 in
13:58 60.8 °F 41.5 °F 29.70 in West 3.8 mph 11.5 mph 49 % 0.00 in
14:03 60.5 °F 40.7 °F 29.70 in North 5.8 mph 11.5 mph 48 % 0.00 in
14:08 60.2 °F 39.9 °F 29.70 in NNW 8.7 mph 19.6 mph 47 % 0.00 in
14:13 59.8 °F 40.1 °F 29.70 in WNW 5.9 mph 11.5 mph 48 % 0.00 in
14:18 59.3 °F 40.7 °F 29.71 in NNW 7.4 mph 11.5 mph 50 % 0.00 in
14:23 58.8 °F 40.2 °F 29.71 in North 6.7 mph 15.0 mph 50 % 0.00 in
14:28 58.3 °F 39.7 °F 29.72 in NW 7.0 mph 17.3 mph 50 % 0.00 in
14:33 58.0 °F 41.0 °F 29.73 in NW 10.8 mph 19.6 mph 53 % 0.00 in
14:38 57.7 °F 40.7 °F 29.73 in NNE 8.4 mph 12.7 mph 53 % 0.00 in
14:43 57.4 °F 38.4 °F 29.73 in NW 5.5 mph 12.7 mph 49 % 0.00 in
14:49 57.2 °F 39.2 °F 29.74 in NW 5.4 mph 11.0 mph 51 % 0.00 in
14:54 57.0 °F 39.0 °F 29.75 in West 9.0 mph 13.8 mph 51 % 0.00 in
14:59 56.8 °F 38.3 °F 29.75 in NNW 9.1 mph 13.0 mph 50 % 0.00 in
15:04 56.6 °F 38.2 °F 29.75 in WNW 4.3 mph 15.0 mph 50 % 0.00 in
15:09 56.5 °F 38.1 °F 29.75 in North 6.2 mph 18.0 mph 50 % 0.00 in
15:14 56.3 °F 37.4 °F 29.76 in North 5.7 mph 15.0 mph 49 % 0.00 in
15:19 56.0 °F 36.6 °F 29.76 in NW 8.0 mph 18.4 mph 48 % 0.00 in
15:24 55.8 °F 35.3 °F 29.76 in WNW 7.1 mph 13.8 mph 46 % 0.00 in
15:29 55.5 °F 37.1 °F 29.77 in NW 5.4 mph 16.0 mph 50 % 0.00 in
15:34 55.3 °F 36.5 °F 29.77 in WNW 11.4 mph 19.6 mph 49 % 0.00 in
15:40 55.1 °F 37.8 °F 29.78 in NW 4.8 mph 15.0 mph 52 % 0.00 in
15:45 54.8 °F 36.0 °F 29.78 in NW 7.4 mph 11.5 mph 49 % 0.00 in
15:50 54.6 °F 35.8 °F 29.79 in NW 5.4 mph 12.0 mph 49 % 0.00 in
15:55 54.4 °F 34.6 °F 29.79 in WNW 10.5 mph 19.0 mph 47 % 0.00 in
16:00 54.2 °F 34.4 °F 29.79 in WNW 6.9 mph 13.8 mph 47 % 0.00 in
16:05 54.0 °F 35.3 °F 29.80 in WNW 8.2 mph 13.8 mph 49 % 0.00 in
16:10 53.8 °F 33.5 °F 29.81 in NW 8.0 mph 16.0 mph 46 % 0.00 in
16:15 53.7 °F 33.9 °F 29.81 in WNW 3.0 mph 15.0 mph 47 % 0.00 in
16:20 53.5 °F 34.3 °F 29.81 in NW 7.0 mph 17.0 mph 48 % 0.00 in
16:25 53.4 °F 33.6 °F 29.82 in NW 7.0 mph 13.0 mph 47 % 0.00 in
16:30 53.2 °F 33.5 °F 29.83 in WNW 4.4 mph 11.5 mph 47 % 0.00 in
16:35 53.0 °F 32.8 °F 29.83 in NW 6.0 mph 12.0 mph 46 % 0.00 in
16:40 52.8 °F 32.0 °F 29.83 in NW 6.0 mph 13.0 mph 45 % 0.00 in
16:45 52.6 °F 31.8 °F 29.84 in West 6.9 mph 15.0 mph 45 % 0.00 in
16:50 52.5 °F 32.3 °F 29.84 in NW 7.0 mph 15.0 mph 46 % 0.00 in
16:55 52.4 °F 32.2 °F 29.85 in NW 6.0 mph 23.0 mph 46 % 0.00 in
17:00 52.2 °F 31.5 °F 29.86 in NW 5.6 mph 13.8 mph 45 % 0.00 in
17:05 52.1 °F 32.4 °F 29.86 in NW 6.0 mph 14.0 mph 47 % 0.00 in
17:10 51.9 °F 31.2 °F 29.87 in WNW 9.0 mph 20.0 mph 45 % 0.00 in
17:15 51.8 °F 31.6 °F 29.87 in NW 6.0 mph 18.0 mph 46 % 0.00 in
17:20 51.6 °F 31.5 °F 29.88 in NW 5.0 mph 18.0 mph 46 % 0.00 in
17:25 51.5 °F 31.9 °F 29.88 in NW 7.0 mph 16.0 mph 47 % 0.00 in
17:30 51.4 °F 31.3 °F 29.89 in NW 6.0 mph 14.0 mph 46 % 0.00 in
17:35 51.2 °F 31.6 °F 29.89 in NW 5.0 mph 21.0 mph 47 % 0.00 in
17:40 51.0 °F 32.0 °F 29.90 in NW 7.0 mph 14.0 mph 48 % 0.00 in
17:45 50.8 °F 29.6 °F 29.90 in NW 9.0 mph 16.0 mph 44 % 0.00 in
17:50 50.6 °F 30.6 °F 29.91 in NW 6.0 mph 15.0 mph 46 % 0.00 in
17:55 50.4 °F 30.4 °F 29.92 in NNW 8.0 mph 20.0 mph 46 % 0.00 in
18:00 50.3 °F 30.3 °F 29.92 in NW 7.3 mph 16.1 mph 46 % 0.00 in
18:05 50.1 °F 30.1 °F 29.92 in NNW 7.0 mph 16.0 mph 46 % 0.00 in
18:10 50.0 °F 31.0 °F 29.92 in NNW 7.0 mph 13.0 mph 48 % 0.00 in
18:15 49.8 °F 31.4 °F 29.93 in NNW 6.0 mph 15.0 mph 49 % 0.00 in
18:20 49.6 °F 30.7 °F 29.93 in NNW 7.0 mph 17.0 mph 48 % 0.00 in
18:25 49.3 °F 30.4 °F 29.94 in NNW 10.0 mph 17.0 mph 48 % 0.00 in
18:30 49.1 °F 30.7 °F 29.94 in NNW 7.0 mph 13.0 mph 49 % 0.00 in
18:35 48.9 °F 30.5 °F 29.95 in NNW 7.0 mph 17.0 mph 49 % 0.00 in
18:40 48.7 °F 31.4 °F 29.96 in NNW 7.0 mph 16.0 mph 51 % 0.00 in
18:45 48.6 °F 32.2 °F 29.96 in North 8.0 mph 17.0 mph 53 % 0.00 in
18:50 48.3 °F 30.5 °F 29.97 in NNW 7.0 mph 16.0 mph 50 % 0.00 in
18:55 48.0 °F 29.2 °F 29.97 in NNW 7.0 mph 13.0 mph 48 % 0.00 in
19:00 47.8 °F 29.0 °F 29.98 in North 9.3 mph 18.4 mph 48 % 0.00 in
19:05 47.6 °F 28.8 °F 29.98 in North 8.0 mph 18.0 mph 48 % 0.00 in
19:10 47.3 °F 29.1 °F 29.98 in North 8.0 mph 17.0 mph 49 % 0.00 in
19:15 47.0 °F 28.3 °F 29.99 in North 7.0 mph 15.0 mph 48 % 0.00 in
19:20 46.9 °F 29.7 °F 29.98 in NNW 7.4 mph 11.0 mph 51 % 0.00 in
19:25 46.7 °F 29.0 °F 29.99 in NNW 6.0 mph 17.0 mph 50 % 0.00 in
19:30 46.6 °F 28.9 °F 30.00 in NNW 8.3 mph 17.3 mph 50 % 0.00 in
19:35 46.5 °F 29.3 °F 30.00 in North 12.0 mph 21.0 mph 51 % 0.00 in
19:40 46.3 °F 30.6 °F 30.01 in NNE 8.0 mph 16.0 mph 54 % 0.00 in
19:45 46.1 °F 29.9 °F 30.01 in NNE 12.0 mph 22.0 mph 53 % 0.00 in
19:50 45.8 °F 30.1 °F 30.01 in North 8.0 mph 11.5 mph 54 % 0.00 in
19:55 45.5 °F 28.9 °F 30.02 in North 9.0 mph 20.0 mph 52 % 0.00 in
20:00 45.3 °F 28.7 °F 30.02 in NNE 8.6 mph 12.7 mph 52 % 0.00 in
20:05 45.0 °F 27.9 °F 30.03 in NNE 8.0 mph 17.3 mph 51 % 0.00 in
20:10 44.8 °F 27.8 °F 30.03 in NNE 10.3 mph 21.9 mph 51 % 0.00 in
20:15 44.6 °F 27.6 °F 30.03 in NNW 10.6 mph 19.6 mph 51 % 0.00 in
20:21 44.4 °F 27.4 °F 30.04 in NNW 9.4 mph 19.6 mph 51 % 0.00 in
20:26 44.3 °F 28.7 °F 30.04 in NNW 4.8 mph 5.8 mph 54 % 0.00 in
20:31 44.1 °F 27.6 °F 30.04 in NE 10.1 mph 15.0 mph 52 % 0.00 in
20:36 44.0 °F 27.5 °F 30.05 in North 14.5 mph 19.6 mph 52 % 0.00 in
20:41 44.0 °F 27.0 °F 30.05 in NNE 10.2 mph 20.0 mph 51 % 0.00 in
20:46 43.9 °F 27.4 °F 30.06 in NW 7.1 mph 11.5 mph 52 % 0.00 in
20:51 43.8 °F 27.8 °F 30.06 in North 6.6 mph 12.7 mph 53 % 0.00 in
20:56 43.7 °F 27.2 °F 30.06 in North 8.0 mph 13.8 mph 52 % 0.00 in
21:01 43.6 °F 27.6 °F 30.07 in North 6.2 mph 12.7 mph 53 % 0.00 in
21:06 43.5 °F 26.6 °F 30.07 in NNW 7.6 mph 13.0 mph 51 % 0.00 in
21:12 43.4 °F 26.9 °F 30.08 in NNE 6.3 mph 15.0 mph 52 % 0.00 in
21:17 43.3 °F 26.8 °F 30.07 in North 8.4 mph 11.5 mph 52 % 0.00 in
21:22 43.3 °F 27.3 °F 30.07 in NW 5.0 mph 10.4 mph 53 % 0.00 in
21:27 43.2 °F 27.2 °F 30.08 in NW 5.7 mph 9.2 mph 53 % 0.00 in
21:32 43.1 °F 27.1 °F 30.08 in North 2.9 mph 6.9 mph 53 % 0.00 in
21:37 43.1 °F 27.1 °F 30.08 in North 5.8 mph 13.8 mph 53 % 0.00 in
21:42 43.0 °F 26.6 °F 30.08 in WNW 5.7 mph 13.8 mph 52 % 0.00 in
21:47 42.9 °F 26.9 °F 30.08 in NNE 6.7 mph 10.4 mph 53 % 0.00 in
21:52 42.8 °F 26.4 °F 30.08 in NE 8.5 mph 15.0 mph 52 % 0.00 in
21:57 42.8 °F 26.8 °F 30.08 in North 9.3 mph 13.8 mph 53 % 0.00 in
22:02 42.7 °F 26.7 °F 30.09 in NNW 6.4 mph 10.4 mph 53 % 0.00 in
22:07 42.7 °F 26.3 °F 30.09 in NNW 6.8 mph 11.5 mph 52 % 0.00 in
22:13 42.7 °F 27.2 °F 30.09 in NNE 3.8 mph 10.0 mph 54 % 0.00 in
22:18 42.6 °F 27.1 °F 30.09 in NW 5.1 mph 11.5 mph 54 % 0.00 in
22:23 42.5 °F 26.1 °F 30.08 in NNE 4.5 mph 10.4 mph 52 % 0.00 in
22:28 42.4 °F 26.0 °F 30.09 in North 6.5 mph 10.4 mph 52 % 0.00 in
22:33 42.4 °F 26.5 °F 30.08 in NNE 4.8 mph 6.9 mph 53 % 0.00 in
22:38 42.4 °F 26.9 °F 30.09 in NE 4.5 mph 11.5 mph 54 % 0.00 in
22:43 42.3 °F 26.8 °F 30.09 in North 5.4 mph 9.2 mph 54 % 0.00 in
22:48 42.3 °F 26.4 °F 30.10 in NW 1.8 mph 12.7 mph 53 % 0.00 in
22:53 42.2 °F 25.8 °F 30.10 in NNW 7.1 mph 11.5 mph 52 % 0.00 in
22:58 42.2 °F 25.8 °F 30.10 in North 7.2 mph 12.7 mph 52 % 0.00 in
23:04 42.1 °F 26.6 °F 30.10 in NW 3.9 mph 8.1 mph 54 % 0.00 in
23:09 42.0 °F 26.5 °F 30.10 in North 5.6 mph 12.0 mph 54 % 0.00 in
23:14 42.0 °F 26.5 °F 30.11 in NNW 6.2 mph 13.0 mph 54 % 0.00 in
23:19 41.9 °F 26.4 °F 30.11 in North 4.1 mph 11.5 mph 54 % 0.00 in
23:24 41.9 °F 26.9 °F 30.11 in North 3.1 mph 11.5 mph 55 % 0.00 in
23:29 41.9 °F 26.4 °F 30.11 in NW 4.7 mph 9.0 mph 54 % 0.00 in
23:34 41.8 °F 26.8 °F 30.11 in North 6.0 mph 13.0 mph 55 % 0.00 in
23:39 41.7 °F 25.8 °F 30.11 in NW 4.1 mph 9.2 mph 53 % 0.00 in
23:44 41.6 °F 25.7 °F 30.11 in NNW 4.3 mph 11.5 mph 53 % 0.00 in
23:49 41.5 °F 25.6 °F 30.11 in North 7.3 mph 11.5 mph 53 % 0.00 in
23:55 41.5 °F 25.2 °F 30.12 in NNW 6.0 mph 10.4 mph 52 % 0.00 in
Crab Meadow Weather
Compliments of Weather Underground - 3 mb

Script developed by  Jim McMurry - jmcmurry@mwt.net Adapted for the template by  Wim van der Kuil - Leuven-Template.eu

Weather Terms: Severe Thunderstorm Warning - A severe thunderstorm is indicated by Doppler radar or sighted by skywarn spotters. A severe thunderstorm contains large damaging hail, 1 inch diameter or larger, and/or damaging winds of around 60 mph or greater. These warnings are issued on a county by county basis by the local Weather Forecast Office in Upton.